Logo Frankfurt-Egelsbach Airport
Hessische Flugplatz GmbH Egelsbach
Telefon : +49 (0)6103-9418-0
E-Mail : fly@egelsbach-airport.com
   

 

 

 

 

 

 

Aktuelle Daten

Öffnungszeiten: 0800 LT - SS+30 (max 2100 LT)

PPR: 0700 LT - 0800 LT, SS+30 - 2100 LT Tel +49 6103 9418-0

Behördlich vorgeschriebenes Briefing für NVFR-Anflüge mit HPA
für die Saison 2014/2015

» Behördlich vorgeschriebenes Briefing für NVFR-Anflüge mit HPA für die Saison 2014/2015

 

Webcam

Webcam

Wetterdaten

Beobachtung von : 22-MAI-2015 - 15:52 UTC
Sonnenaufgang : 03:31 UTC
Sonnenuntergang : 19:13 UTC
Sicht : ausgefallen
Wolkenuntergrenze : nicht feststellbar
Wind : 340 / 4 kt
Wind extrem (10 min) : 310-040 / 3-8 kt
Temperatur : 19.3° Celsius
Taupunkt : 1.0° Celsius
QNH : 1022.3 hPa
Dichtehöhe : 750 ft

Daten werden automatisch generiert. Verfügbarkeit und Richtigkeit ohne Gewähr.
Mit freundlicher Unterstützung des Deutschen Wetterdienstes

Metar

944
SADL31 EDFE 221550
METAR EDFE 221550Z 36004KT CAVOK 19/00 Q1022=


Notam

E1252/15 - CRANE APRX 150M N OF THR 26, PSN 495747N 0083852E. ELEV 462 FT/82FT AGL. 30 APR 11:35 2015 UNTIL 29 JUL 11:35 2015 ESTIMATED.